Time;durP1;ratioP1;P1;durP2;ratioP2;P2;SDS_P1;SDS_P2;PMS_P1;PMS_P2;Temp;Humidity;BMP_temperature;BMP_pressure;BME280_temperature;BME280_humidity;BME280_pressure;Samples;Min_cycle;Max_cycle;Signal;HPM_P1;HPM_P2
2024/01/30 05:30:56;;;;;;;;;14.00;12.75;;;;;20.88;45.98;102296.25;5065542;27;45645;-77
2024/01/30 05:33:21;;;;;;;;;11.50;11.50;;;;;20.70;46.21;102303.75;5070032;28;45157;-76
2024/01/30 05:35:47;;;;;;;;;12.00;12.00;;;;;20.75;46.25;102307.09;5075490;28;46408;-77
2024/01/30 05:38:12;;;;;;;;;10.25;9.75;;;;;20.84;45.92;102315.66;5075079;28;53144;-76
2024/01/30 05:40:37;;;;;;;;;13.00;10.50;;;;;20.67;46.37;102312.13;5073859;28;45361;-77
2024/01/30 05:43:03;;;;;;;;;6.00;4.25;;;;;20.68;46.49;102315.72;5074583;28;60900;-77
2024/01/30 05:45:28;;;;;;;;;9.75;9.75;;;;;20.71;46.54;102319.13;5075497;28;46371;-77
2024/01/30 05:47:54;;;;;;;;;11.50;11.50;;;;;20.57;46.35;102302.78;5075006;28;45348;-77
2024/01/30 05:50:20;;;;;;;;;10.50;8.75;;;;;20.71;46.16;102331.88;5075280;28;45309;-75
2024/01/30 05:52:45;;;;;;;;;14.75;12.75;;;;;20.69;46.52;102318.34;5075315;28;45510;-77
2024/01/30 05:55:12;;;;;;;;;8.75;8.75;;;;;20.62;46.30;102327.91;5075348;28;45845;-76
2024/01/30 05:57:37;;;;;;;;;12.00;10.50;;;;;20.62;46.39;102327.00;5075028;28;45374;-77
2024/01/30 06:00:04;;;;;;;;;12.00;11.25;;;;;20.61;46.43;102327.97;5075299;28;45645;-77
2024/01/30 06:02:30;;;;;;;;;12.25;12.25;;;;;20.32;47.11;102327.06;5074680;28;45513;-75
2024/01/30 06:04:55;;;;;;;;;8.50;8.50;;;;;20.58;46.82;102333.66;5075428;27;46326;-77
2024/01/30 06:07:21;;;;;;;;;17.00;12.50;;;;;20.37;46.77;102339.44;5078254;28;45409;-78
2024/01/30 06:09:47;;;;;;;;;12.75;11.25;;;;;20.53;46.77;102338.50;5073620;28;45468;-76
2024/01/30 06:12:12;;;;;;;;;11.25;10.00;;;;;20.62;46.33;102341.53;5074937;28;45425;-76
2024/01/30 06:14:38;;;;;;;;;16.00;14.50;;;;;20.38;46.85;102351.22;5074766;28;45972;-77
2024/01/30 06:17:03;;;;;;;;;12.75;11.00;;;;;20.60;46.66;102348.91;5075458;28;45484;-77
2024/01/30 06:19:29;;;;;;;;;12.50;10.75;;;;;20.58;46.43;102350.88;5075405;28;45735;-77
2024/01/30 06:21:54;;;;;;;;;13.00;10.25;;;;;20.70;46.37;102350.09;5074387;28;45417;-77
2024/01/30 06:24:19;;;;;;;;;11.50;11.25;;;;;20.73;46.04;102336.28;5074366;28;55603;-77
2024/01/30 06:26:45;;;;;;;;;14.75;13.75;;;;;20.70;46.18;102344.63;5075134;28;45299;-76
2024/01/30 06:29:11;;;;;;;;;13.25;10.75;;;;;20.78;45.99;102350.47;5067655;28;45438;-76
2024/01/30 06:31:41;;;;;;;;;10.75;10.50;;;;;20.53;46.20;102333.91;5074136;27;45795;-75
2024/01/30 06:34:06;;;;;;;;;15.25;13.75;;;;;20.70;46.25;102366.44;5074728;28;45254;-76
2024/01/30 06:36:32;;;;;;;;;10.50;10.25;;;;;20.70;46.48;102371.91;5074464;28;45403;-73
2024/01/30 06:38:57;;;;;;;;;9.75;8.75;;;;;20.68;46.50;102359.31;5074138;28;49879;-73
2024/01/30 06:41:22;;;;;;;;;11.25;11.25;;;;;20.67;46.57;102373.94;5074181;28;45939;-74
2024/01/30 06:43:48;;;;;;;;;16.00;11.50;;;;;20.72;46.27;102369.06;5056623;28;53867;-75
2024/01/30 06:46:13;;;;;;;;;13.75;11.25;;;;;20.70;46.40;102371.00;5074259;28;49860;-77
2024/01/30 06:48:40;;;;;;;;;13.25;13.00;;;;;20.73;45.90;102349.03;5056464;28;45445;-77
2024/01/30 06:51:05;;;;;;;;;13.25;13.25;;;;;20.96;45.89;102366.66;5074490;28;45472;-77
2024/01/30 06:53:31;;;;;;;;;11.75;11.75;;;;;20.96;46.03;102375.69;5074687;28;46057;-77
2024/01/30 06:55:56;;;;;;;;;15.50;14.50;;;;;20.84;45.98;102372.91;5074283;28;45409;-76
2024/01/30 06:58:21;;;;;;;;;13.75;13.75;;;;;20.76;46.55;102379.69;5074320;28;45567;-78
2024/01/30 07:00:47;;;;;;;;;11.75;11.50;;;;;20.81;46.25;102375.81;5073622;28;45538;-77
2024/01/30 07:03:12;;;;;;;;;13.25;9.25;;;;;20.90;46.00;102377.94;5056584;28;47690;-76
2024/01/30 07:05:46;;;;;;;;;10.75;10.75;;;;;20.84;45.83;102364.72;5074870;27;45334;-76
2024/01/30 07:08:11;;;;;;;;;12.25;10.75;;;;;20.82;46.48;102383.00;5073615;28;45475;-77
2024/01/30 07:10:37;;;;;;;;;13.00;10.00;;;;;20.73;46.16;102362.66;5073170;28;45522;-77
2024/01/30 07:13:04;;;;;;;;;12.75;12.75;;;;;20.85;46.09;102371.88;5073627;28;45361;-77
2024/01/30 07:15:29;;;;;;;;;14.75;13.75;;;;;21.02;46.02;102398.97;5074204;28;45338;-79
2024/01/30 07:17:54;;;;;;;;;11.25;10.50;;;;;21.09;45.53;102408.53;5074283;28;45536;-77
2024/01/30 07:20:23;;;;;;;;;15.75;9.00;;;;;21.14;45.38;102409.09;5056081;28;45951;-77
2024/01/30 07:22:49;;;;;;;;;10.00;8.25;;;;;21.22;45.77;102414.97;5090101;27;47394;-79
2024/01/30 07:25:15;;;;;;;;;12.50;11.00;;;;;21.20;45.30;102408.75;5073699;28;45369;-79
2024/01/30 07:27:40;;;;;;;;;12.50;12.00;;;;;21.31;45.59;102411.66;5075499;28;45650;-79
2024/01/30 07:30:06;;;;;;;;;14.00;14.00;;;;;21.23;45.32;102394.91;5075959;28;45464;-77
2024/01/30 07:32:32;;;;;;;;;14.00;13.00;;;;;21.29;45.31;102416.34;5056952;28;47375;-78
2024/01/30 07:34:57;;;;;;;;;16.00;13.00;;;;;21.41;45.42;102415.56;5077123;28;51994;-79
2024/01/30 07:37:23;;;;;;;;;14.75;12.75;;;;;21.25;45.20;102375.72;5059105;28;45458;-78
2024/01/30 07:39:51;;;;;;;;;16.75;12.75;;;;;21.29;45.22;102391.78;5076793;28;46088;-78
2024/01/30 07:42:17;;;;;;;;;12.00;12.00;;;;;21.47;45.24;102426.06;5077917;28;45459;-78
2024/01/30 07:44:42;;;;;;;;;17.25;15.75;;;;;21.52;45.11;102429.34;5076237;28;45385;-78
2024/01/30 07:47:08;;;;;;;;;13.00;13.00;;;;;20.98;45.28;102364.69;5092582;27;45423;-78
2024/01/30 07:49:34;;;;;;;;;12.75;12.50;;;;;21.50;44.92;102442.25;5076522;28;45499;-77
2024/01/30 07:51:59;;;;;;;;;14.25;14.25;;;;;21.42;45.26;102441.00;5071380;28;47609;-78
2024/01/30 07:54:25;;;;;;;;;15.75;14.75;;;;;21.37;45.08;102430.34;5056413;28;45415;-77
2024/01/30 07:56:50;;;;;;;;;15.25;14.50;;;;;21.41;44.75;102431.94;5077122;28;46782;-78
2024/01/30 07:59:15;;;;;;;;;15.75;13.50;;;;;21.33;45.08;102447.03;5077524;28;60854;-78
2024/01/30 08:01:41;;;;;;;;;11.75;11.75;;;;;21.27;45.62;102456.47;5078724;28;46499;-78
2024/01/30 08:04:06;;;;;;;;;16.50;13.50;;;;;21.19;45.65;102458.81;5079144;27;45305;-78
2024/01/30 08:06:32;;;;;;;;;11.50;11.50;;;;;21.14;45.44;102439.09;5078083;28;45547;-77
2024/01/30 08:08:59;;;;;;;;;10.25;10.25;;;;;21.25;45.63;102458.44;5077112;28;45387;-79
2024/01/30 08:11:26;;;;;;;;;12.75;12.75;;;;;21.14;45.60;102469.13;5075478;28;45370;-78
2024/01/30 08:13:52;;;;;;;;;12.50;12.00;;;;;21.11;45.51;102469.28;5075787;28;45379;-79
2024/01/30 08:16:18;;;;;;;;;16.00;14.25;;;;;20.90;45.45;102430.63;5075239;28;45610;-78
2024/01/30 08:18:43;;;;;;;;;11.75;11.75;;;;;21.14;45.26;102460.94;5075103;28;45365;-79
2024/01/30 08:21:09;;;;;;;;;14.75;14.75;;;;;21.01;45.34;102449.91;5077142;28;46363;-78
2024/01/30 08:23:35;;;;;;;;;10.75;10.75;;;;;20.75;45.58;102415.22;5075482;28;45366;-79
2024/01/30 08:26:00;;;;;;;;;9.75;9.75;;;;;21.10;45.25;102473.00;5077712;28;45531;-78
2024/01/30 08:28:26;;;;;;;;;15.00;13.50;;;;;21.12;45.65;102471.06;5067150;28;46087;-77
2024/01/30 08:30:51;;;;;;;;;12.75;12.75;;;;;21.17;45.65;102490.78;5075504;28;45422;-78
2024/01/30 08:33:17;;;;;;;;;16.00;14.75;;;;;21.05;45.69;102486.06;5054665;28;45482;-79
2024/01/30 08:35:42;;;;;;;;;15.00;13.50;;;;;21.04;45.74;102493.34;5076123;28;45443;-77
2024/01/30 08:38:07;;;;;;;;;12.50;12.50;;;;;21.15;45.42;102503.59;5076494;28;45470;-76
2024/01/30 08:40:33;;;;;;;;;14.25;12.75;;;;;21.08;45.50;102480.41;5076386;28;45495;-79
2024/01/30 08:42:58;;;;;;;;;13.75;13.75;;;;;21.18;45.28;102486.22;5075370;28;45373;-77
2024/01/30 08:45:23;;;;;;;;;15.00;13.25;;;;;21.22;45.09;102496.81;5074891;28;45554;-76
2024/01/30 08:47:49;;;;;;;;;14.75;14.75;;;;;21.21;45.60;102503.25;5075300;28;45537;-76
2024/01/30 08:50:14;;;;;;;;;13.00;13.00;;;;;21.07;45.44;102482.25;5075113;28;49553;-78
2024/01/30 08:52:40;;;;;;;;;16.75;13.50;;;;;21.19;45.48;102521.53;5075489;28;45259;-78
2024/01/30 08:55:05;;;;;;;;;11.50;11.00;;;;;21.18;45.33;102513.50;5075110;28;45564;-76
2024/01/30 08:57:30;;;;;;;;;9.25;9.25;;;;;21.17;45.56;102511.69;5075572;28;45198;-77
2024/01/30 08:59:56;;;;;;;;;13.25;12.25;;;;;21.07;45.20;102486.84;5075823;28;53111;-76
2024/01/30 09:02:21;;;;;;;;;11.00;10.50;;;;;21.21;45.07;102505.09;5057641;28;45444;-79
2024/01/30 09:04:47;;;;;;;;;14.25;14.25;;;;;21.35;45.05;102521.50;5056869;28;45195;-80
2024/01/30 09:07:13;;;;;;;;;19.75;16.75;;;;;20.99;45.90;102524.63;5069291;28;45207;-78
2024/01/30 09:09:40;;;;;;;;;16.25;13.25;;;;;20.69;46.16;102497.34;5075982;28;45402;-80
2024/01/30 09:12:09;;;;;;;;;17.00;13.75;;;;;20.94;46.04;102541.25;5075777;28;45546;-75
2024/01/30 09:14:35;;;;;;;;;16.75;15.75;;;;;20.86;46.45;102523.59;5075429;28;45373;-76
2024/01/30 09:17:01;;;;;;;;;15.75;14.50;;;;;20.92;45.82;102537.75;5074092;28;45574;-76
2024/01/30 09:19:26;;;;;;;;;23.00;17.50;;;;;20.98;46.16;102540.09;5075611;28;45904;-77
2024/01/30 09:21:51;;;;;;;;;16.50;16.00;;;;;20.95;46.23;102536.66;5075637;28;45268;-76
2024/01/30 09:24:17;;;;;;;;;15.00;15.00;;;;;21.00;46.21;102540.00;5075175;28;51665;-77
2024/01/30 09:26:42;;;;;;;;;18.25;16.25;;;;;20.81;46.72;102556.59;5075122;28;50142;-76
2024/01/30 09:29:07;;;;;;;;;14.50;14.50;;;;;20.83;46.70;102553.78;5074682;28;51842;-76
2024/01/30 09:31:33;;;;;;;;;15.00;14.00;;;;;20.78;46.57;102540.41;5074998;28;45364;-76
2024/01/30 09:33:58;;;;;;;;;14.00;14.00;;;;;20.90;46.23;102566.97;5075220;28;50614;-76
2024/01/30 09:36:23;;;;;;;;;17.25;16.25;;;;;20.88;46.26;102555.25;5075378;28;56965;-75
2024/01/30 09:38:49;;;;;;;;;15.25;13.00;;;;;20.77;46.20;102530.47;5075261;28;46239;-76
2024/01/30 09:41:15;;;;;;;;;17.25;15.75;;;;;20.76;46.80;102562.31;5075628;28;45370;-77
2024/01/30 09:43:48;;;;;;;;;18.25;16.50;;;;;20.93;46.68;102571.31;5075458;28;45352;-76
2024/01/30 09:46:16;;;;;;;;;15.75;15.75;;;;;20.95;46.31;102572.13;5075301;28;45618;-76
2024/01/30 09:48:42;;;;;;;;;16.50;15.50;;;;;21.03;46.48;102573.41;5075377;28;45437;-75
2024/01/30 09:51:09;;;;;;;;;18.00;16.25;;;;;20.99;46.52;102571.84;5075397;28;45466;-77
2024/01/30 09:53:34;;;;;;;;;15.25;15.25;;;;;20.92;46.63;102565.03;5075812;28;45338;-76
2024/01/30 09:56:02;;;;;;;;;17.50;17.50;;;;;21.05;46.50;102576.03;5075420;28;45263;-75
2024/01/30 09:58:27;;;;;;;;;16.00;16.00;;;;;21.01;46.52;102582.69;5074140;28;46353;-78
2024/01/30 10:00:53;;;;;;;;;12.75;12.50;;;;;21.14;46.19;102587.28;5074949;28;45533;-76
2024/01/30 10:03:19;;;;;;;;;14.50;14.50;;;;;20.96;46.40;102577.47;5075237;28;45458;-76
2024/01/30 10:05:52;;;;;;;;;17.25;16.00;;;;;20.92;46.78;102584.09;5076397;27;45429;-76
2024/01/30 10:08:19;;;;;;;;;17.25;14.75;;;;;21.08;46.69;102584.06;5074902;28;45672;-77
2024/01/30 10:10:46;;;;;;;;;11.50;11.25;;;;;21.14;46.35;102591.84;5075165;28;45454;-78
2024/01/30 10:13:12;;;;;;;;;19.75;17.00;;;;;21.03;46.46;102592.50;5075247;28;45413;-77
2024/01/30 10:15:38;;;;;;;;;14.75;14.25;;;;;21.01;46.55;102586.25;5074704;28;45345;-75
2024/01/30 10:18:06;;;;;;;;;15.00;15.00;;;;;21.06;46.68;102584.13;5057181;28;46128;-77
2024/01/30 10:20:32;;;;;;;;;13.00;13.00;;;;;21.15;46.10;102599.06;5075305;28;45449;-77
2024/01/30 10:22:57;;;;;;;;;15.00;15.00;;;;;21.13;46.11;102593.69;5075373;28;45349;-75
2024/01/30 10:25:23;;;;;;;;;16.50;16.50;;;;;21.30;46.03;102611.78;5074646;28;45581;-77
2024/01/30 10:27:54;;;;;;;;;22.25;17.75;;;;;21.23;45.96;102591.31;5074555;28;45575;-77
2024/01/30 10:30:19;;;;;;;;;15.50;15.25;;;;;21.20;46.09;102583.31;5074545;28;45211;-75
2024/01/30 10:32:44;;;;;;;;;17.50;16.75;;;;;21.24;46.13;102601.28;5074203;28;45429;-76
2024/01/30 10:35:10;;;;;;;;;17.75;17.75;;;;;21.34;45.81;102613.38;5074415;28;45873;-76
2024/01/30 10:37:35;;;;;;;;;19.00;17.25;;;;;21.35;45.55;102608.81;5074368;28;55251;-75
2024/01/30 10:40:06;;;;;;;;;15.75;15.75;;;;;21.28;46.18;102612.84;5074664;28;45279;-77
2024/01/30 10:42:32;;;;;;;;;11.75;11.75;;;;;21.28;45.83;102627.38;5074609;28;45327;-76
2024/01/30 10:45:09;;;;;;;;;16.50;13.75;;;;;21.35;46.12;102628.75;5074517;28;45327;-76
2024/01/30 10:47:38;;;;;;;;;20.00;20.00;;;;;21.15;45.66;102616.31;5074252;28;46169;-75
2024/01/30 10:50:05;;;;;;;;;19.75;19.00;;;;;21.24;46.17;102631.28;5074141;28;45416;-76
2024/01/30 10:52:32;;;;;;;;;21.00;17.00;;;;;21.32;45.72;102626.22;5074455;28;45409;-76
2024/01/30 10:54:58;;;;;;;;;12.25;12.25;;;;;21.23;46.17;102624.06;5074172;28;45615;-76
2024/01/30 10:57:24;;;;;;;;;16.00;12.75;;;;;21.05;45.59;102593.28;5055904;28;48091;-76
2024/01/30 10:59:52;;;;;;;;;14.75;13.75;;;;;21.39;45.74;102629.47;5074082;28;45353;-77
2024/01/30 11:02:19;;;;;;;;;12.75;11.50;;;;;21.33;45.70;102625.25;5074111;28;45471;-76
2024/01/30 11:04:45;;;;;;;;;14.50;14.50;;;;;21.42;45.65;102632.00;5076173;27;45363;-77
2024/01/30 11:07:18;;;;;;;;;15.25;13.50;;;;;21.48;45.25;102631.63;5074458;28;46531;-77
2024/01/30 11:10:01;;;;;;;;;12.00;12.00;;;;;21.34;45.50;102627.03;5076581;28;45481;-76
2024/01/30 11:12:28;;;;;;;;;14.25;14.25;;;;;21.20;46.03;102632.41;5077747;28;45365;-76
2024/01/30 11:15:08;;;;;;;;;12.75;12.75;;;;;21.21;46.14;102636.91;5059199;28;47631;-77
2024/01/30 11:17:48;;;;;;;;;13.25;13.25;;;;;21.12;46.18;102637.44;5076946;28;46118;-77
2024/01/30 11:20:16;;;;;;;;;10.50;10.50;;;;;21.33;45.70;102633.44;5077454;28;45494;-78
2024/01/30 11:22:45;;;;;;;;;13.00;13.00;;;;;21.29;45.52;102628.25;5077680;28;45396;-77
2024/01/30 11:25:15;;;;;;;;;12.00;11.25;;;;;21.31;45.69;102605.38;5077441;28;45253;-75
2024/01/30 11:27:44;;;;;;;;;13.25;12.00;;;;;21.45;45.31;102613.56;5077438;28;46143;-77
2024/01/30 11:30:10;;;;;;;;;12.75;12.25;;;;;21.39;45.03;102603.03;5077280;28;45512;-75
2024/01/30 11:32:36;;;;;;;;;13.75;10.00;;;;;21.47;45.25;102621.66;5076868;27;45265;-76
2024/01/30 11:35:06;;;;;;;;;7.75;6.75;;;;;21.27;44.30;102620.16;5058771;28;46350;-77
2024/01/30 11:37:31;;;;;;;;;7.25;7.25;;;;;21.31;43.97;102629.94;5077393;28;46210;-75
2024/01/30 11:39:58;;;;;;;;;8.25;7.00;;;;;21.33;43.29;102638.03;5077113;28;45501;-76
2024/01/30 11:42:26;;;;;;;;;3.50;3.50;;;;;21.32;43.70;102639.00;5077776;28;45295;-76
2024/01/30 11:44:51;;;;;;;;;5.00;5.00;;;;;21.34;43.55;102637.06;5077397;28;45520;-77
2024/01/30 11:47:17;;;;;;;;;6.50;6.50;;;;;21.41;43.13;102643.88;5077163;28;57370;-76
2024/01/30 11:49:43;;;;;;;;;5.00;5.00;;;;;21.41;43.21;102639.31;5077484;28;45253;-77
2024/01/30 11:52:09;;;;;;;;;4.00;3.50;;;;;21.58;42.83;102631.94;5059070;28;45406;-75
2024/01/30 11:54:35;;;;;;;;;3.00;3.00;;;;;21.64;42.51;102637.00;5077036;28;45377;-76
2024/01/30 11:57:00;;;;;;;;;3.50;3.50;;;;;21.63;42.22;102635.25;5077127;28;45523;-77
2024/01/30 11:59:25;;;;;;;;;3.75;2.25;;;;;21.58;42.11;102634.66;5058539;28;45379;-77
2024/01/30 12:01:52;;;;;;;;;4.50;4.00;;;;;21.48;42.10;102634.34;5076837;28;48288;-78
2024/01/30 12:04:17;;;;;;;;;6.50;5.00;;;;;21.46;41.80;102641.75;5078805;27;45586;-78
2024/01/30 12:06:43;;;;;;;;;3.50;3.50;;;;;21.42;42.18;102641.06;5077203;28;46048;-76
2024/01/30 12:09:09;;;;;;;;;3.75;3.75;;;;;21.38;41.92;102641.34;5076896;28;45278;-76
2024/01/30 12:11:48;;;;;;;;;6.00;4.00;;;;;21.35;42.08;102634.22;5058969;28;45448;-76
2024/01/30 12:14:15;;;;;;;;;9.75;7.00;;;;;21.40;42.05;102643.00;5076612;28;46226;-76
2024/01/30 12:16:41;;;;;;;;;3.00;3.00;;;;;21.18;41.43;102615.25;5058201;28;46382;-76
2024/01/30 12:19:07;;;;;;;;;2.00;2.00;;;;;21.50;41.26;102646.06;5076399;28;45531;-76
2024/01/30 12:21:34;;;;;;;;;3.00;3.00;;;;;21.30;41.42;102628.16;5076031;28;45372;-77
2024/01/30 12:24:00;;;;;;;;;1.75;1.75;;;;;21.37;41.52;102654.09;5076465;28;45630;-76
2024/01/30 12:26:26;;;;;;;;;3.00;3.00;;;;;21.35;41.43;102642.41;5076470;28;45499;-76
2024/01/30 12:28:55;;;;;;;;;3.75;2.75;;;;;21.36;40.95;102657.78;5076615;28;45514;-76
2024/01/30 12:31:27;;;;;;;;;5.50;3.00;;;;;21.27;41.46;102635.66;5076028;28;45390;-77
2024/01/30 12:33:54;;;;;;;;;4.00;4.00;;;;;21.39;41.25;102651.28;5076163;28;45251;-76
2024/01/30 12:36:20;;;;;;;;;3.75;3.25;;;;;21.32;41.42;102639.00;5076623;28;45509;-76
2024/01/30 12:38:45;;;;;;;;;3.00;3.00;;;;;21.31;40.93;102643.56;5076226;28;45397;-76
2024/01/30 12:41:11;;;;;;;;;3.75;3.75;;;;;21.44;41.01;102650.03;5076615;28;45412;-76
2024/01/30 12:43:36;;;;;;;;;2.75;2.75;;;;;21.50;40.55;102637.88;5076058;28;45294;-77
2024/01/30 12:46:03;;;;;;;;;3.00;3.00;;;;;21.61;40.78;102645.38;5076149;28;45383;-76
2024/01/30 12:48:29;;;;;;;;;6.00;4.00;;;;;21.61;40.94;102645.38;5076286;28;45369;-78
2024/01/30 12:50:55;;;;;;;;;2.50;2.50;;;;;21.50;40.18;102646.06;5076405;28;45362;-76
2024/01/30 12:53:21;;;;;;;;;1.00;1.00;;;;;21.41;40.44;102647.50;5076100;28;45363;-77
2024/01/30 12:55:46;;;;;;;;;1.00;1.00;;;;;21.39;40.61;102654.91;5075882;28;54276;-77
2024/01/30 12:58:11;;;;;;;;;2.50;2.50;;;;;21.51;40.42;102647.81;5075976;28;45305;-77
2024/01/30 13:00:37;;;;;;;;;4.75;3.00;;;;;21.53;40.14;102644.00;5057855;28;45880;-76
2024/01/30 13:03:02;;;;;;;;;2.75;2.75;;;;;21.44;40.22;102610.94;5075681;28;53704;-75
2024/01/30 13:05:28;;;;;;;;;1.00;1.00;;;;;21.67;40.48;102640.44;5078145;27;45404;-77
2024/01/30 13:07:53;;;;;;;;;3.00;3.00;;;;;21.51;39.92;102632.31;5075975;28;45347;-77
2024/01/30 13:10:19;;;;;;;;;3.00;3.00;;;;;21.60;39.92;102628.13;5076157;28;45448;-77
2024/01/30 13:12:44;;;;;;;;;1.00;1.00;;;;;21.69;39.84;102632.16;5076108;28;45509;-78
2024/01/30 13:15:11;;;;;;;;;2.00;2.00;;;;;21.75;39.91;102629.91;5075729;28;51697;-76
2024/01/30 13:17:36;;;;;;;;;3.00;3.00;;;;;21.65;39.84;102626.00;5057229;28;45370;-75
2024/01/30 13:20:03;;;;;;;;;3.00;3.00;;;;;21.68;39.76;102636.72;5075878;28;45419;-77
2024/01/30 13:22:29;;;;;;;;;2.00;2.00;;;;;21.64;39.87;102632.41;5075665;28;45500;-77
2024/01/30 13:24:54;;;;;;;;;5.75;4.50;;;;;21.74;39.33;102632.72;5075695;28;46116;-77
2024/01/30 13:27:20;;;;;;;;;2.75;2.75;;;;;21.78;39.66;102628.81;5075621;28;45228;-77
2024/01/30 13:29:45;;;;;;;;;3.00;3.00;;;;;21.59;39.67;102648.22;5075603;28;45497;-76
2024/01/30 13:32:11;;;;;;;;;3.00;3.00;;;;;21.53;39.81;102645.84;5074960;28;45257;-77
2024/01/30 13:34:36;;;;;;;;;3.00;3.00;;;;;21.44;39.85;102646.41;5075159;28;56373;-77
2024/01/30 13:37:01;;;;;;;;;3.25;3.25;;;;;21.40;39.79;102645.75;5057328;28;45447;-76
2024/01/30 13:39:27;;;;;;;;;4.50;2.25;;;;;21.48;39.86;102646.16;5057545;28;45383;-77
2024/01/30 13:41:53;;;;;;;;;3.50;2.00;;;;;21.53;39.84;102652.19;5075077;28;45714;-75
2024/01/30 13:44:18;;;;;;;;;3.00;2.75;;;;;21.61;39.88;102648.09;5057350;28;45566;-77
2024/01/30 13:46:44;;;;;;;;;2.00;1.25;;;;;21.67;39.33;102634.97;5075057;28;45410;-77
2024/01/30 13:49:10;;;;;;;;;2.75;2.00;;;;;21.78;39.62;102621.50;5075641;28;45272;-77
2024/01/30 13:51:35;;;;;;;;;3.00;3.00;;;;;21.95;38.85;102649.63;5075199;28;45488;-76
2024/01/30 13:54:00;;;;;;;;;2.00;2.00;;;;;21.81;39.06;102632.25;5075543;28;45307;-77
2024/01/30 13:56:26;;;;;;;;;0.00;0.00;;;;;21.95;38.93;102641.44;5075381;28;45291;-78
2024/01/30 13:58:52;;;;;;;;;3.50;2.25;;;;;22.00;38.90;102652.97;5075595;28;45424;-77
2024/01/30 14:01:18;;;;;;;;;1.50;1.50;;;;;22.04;38.59;102657.22;5074876;28;45313;-77
2024/01/30 14:03:43;;;;;;;;;1.75;1.75;;;;;22.03;38.41;102660.97;5075005;27;46306;-76
2024/01/30 14:06:08;;;;;;;;;1.25;1.25;;;;;22.00;38.42;102648.38;5076129;27;45492;-77
2024/01/30 14:08:34;;;;;;;;;1.00;1.00;;;;;22.18;38.29;102662.72;5075641;28;45310;-77
2024/01/30 14:10:59;;;;;;;;;1.75;1.75;;;;;21.97;37.93;102656.75;5075164;28;45676;-77
2024/01/30 14:13:25;;;;;;;;;1.00;1.00;;;;;21.88;38.27;102654.56;5075334;28;45937;-78
2024/01/30 14:15:51;;;;;;;;;1.75;1.75;;;;;21.93;38.22;102665.22;5074577;28;45566;-78
2024/01/30 14:18:17;;;;;;;;;3.00;2.00;;;;;22.03;38.09;102675.47;5075410;28;45306;-78
2024/01/30 14:20:42;;;;;;;;;2.00;1.25;;;;;22.01;38.16;102663.78;5074444;28;49960;-78
2024/01/30 14:23:07;;;;;;;;;1.50;1.50;;;;;22.03;37.63;102672.75;5074819;28;55885;-77
2024/01/30 14:25:33;;;;;;;;;2.00;2.00;;;;;22.04;37.52;102660.84;5075140;28;45400;-76
2024/01/30 14:27:58;;;;;;;;;2.00;2.00;;;;;21.83;37.81;102651.25;5056761;28;45515;-78
2024/01/30 14:30:23;;;;;;;;;2.00;2.00;;;;;21.96;37.81;102668.63;5074519;28;45511;-79
2024/01/30 14:32:49;;;;;;;;;3.00;2.00;;;;;22.04;36.94;102670.88;5074733;28;45330;-78
2024/01/30 14:35:14;;;;;;;;;1.75;1.75;;;;;22.04;37.07;102690.88;5074555;28;48648;-78
2024/01/30 14:37:40;;;;;;;;;2.00;2.00;;;;;22.01;37.49;102674.72;5074877;28;45413;-76
2024/01/30 14:40:10;;;;;;;;;4.00;4.00;;;;;21.91;36.98;102684.44;5074915;28;45501;-76
2024/01/30 14:42:37;;;;;;;;;2.00;2.00;;;;;21.59;37.06;102680.09;5074569;28;45251;-76
2024/01/30 14:45:03;;;;;;;;;0.00;0.00;;;;;21.67;37.41;102705.06;5073949;28;45540;-77
2024/01/30 14:47:28;;;;;;;;;1.00;1.00;;;;;21.53;37.23;102704.03;5074394;28;45139;-76
2024/01/30 14:49:54;;;;;;;;;1.00;1.00;;;;;21.38;37.35;102699.53;5074486;28;45457;-77
2024/01/30 14:52:19;;;;;;;;;2.75;1.00;;;;;21.52;37.50;102707.75;5073944;28;62550;-77
2024/01/30 14:54:44;;;;;;;;;1.00;1.00;;;;;21.52;37.40;102707.75;5074039;28;53864;-76
2024/01/30 14:57:10;;;;;;;;;2.25;1.00;;;;;21.56;36.97;102716.63;5074328;28;56250;-78
2024/01/30 14:59:36;;;;;;;;;2.25;2.00;;;;;21.43;36.68;102713.78;5074452;28;45550;-77
2024/01/30 15:02:01;;;;;;;;;1.50;1.50;;;;;21.58;37.16;102720.16;5073976;28;45530;-78
2024/01/30 15:04:26;;;;;;;;;1.00;1.00;;;;;21.44;36.62;102707.31;5076298;27;45315;-76
2024/01/30 15:06:52;;;;;;;;;1.00;1.00;;;;;21.59;36.58;102721.91;5074837;28;45339;-77
2024/01/30 15:09:17;;;;;;;;;1.25;1.00;;;;;21.57;36.17;102702.03;5074098;28;45240;-77
2024/01/30 15:11:44;;;;;;;;;1.50;1.50;;;;;21.78;36.12;102718.91;5074397;28;45432;-77
2024/01/30 15:14:10;;;;;;;;;2.50;1.00;;;;;21.78;35.68;102719.78;5073146;28;45431;-76
2024/01/30 15:16:35;;;;;;;;;0.75;0.75;;;;;21.77;35.58;102728.09;5073797;28;45185;-76
2024/01/30 15:19:01;;;;;;;;;1.00;1.00;;;;;21.88;35.68;102733.75;5074203;28;45421;-76
2024/01/30 15:21:28;;;;;;;;;0.00;0.00;;;;;21.81;36.04;102730.53;5074130;28;45594;-77
2024/01/30 15:23:54;;;;;;;;;0.00;0.00;;;;;21.81;35.82;102721.47;5074564;28;45426;-77
2024/01/30 15:26:20;;;;;;;;;1.00;1.00;;;;;21.84;35.65;102719.44;5074238;28;45349;-76
2024/01/30 15:28:45;;;;;;;;;0.00;0.00;;;;;21.63;35.59;102711.66;5073709;28;45523;-76
2024/01/30 15:31:10;;;;;;;;;2.25;1.00;;;;;21.52;35.18;102735.03;5073634;28;46717;-77
2024/01/30 15:33:36;;;;;;;;;0.25;0.25;;;;;21.52;36.21;102745.94;5073844;28;45401;-77
2024/01/30 15:36:02;;;;;;;;;0.25;0.25;;;;;21.47;35.81;102728.97;5074059;28;45353;-78
2024/01/30 15:38:28;;;;;;;;;0.00;0.00;;;;;21.65;35.90;102747.94;5073671;28;45408;-78
2024/01/30 15:40:54;;;;;;;;;0.00;0.00;;;;;21.61;35.87;102743.63;5055286;28;47179;-77
2024/01/30 15:43:20;;;;;;;;;0.00;0.00;;;;;21.57;35.65;102742.06;5073839;28;45773;-77
2024/01/30 15:45:46;;;;;;;;;0.00;0.00;;;;;21.45;35.53;102740.94;5073650;28;45385;-77
2024/01/30 15:48:11;;;;;;;;;0.00;0.00;;;;;21.22;35.61;102731.41;5055528;28;45537;-77
2024/01/30 15:50:37;;;;;;;;;2.00;0.25;;;;;21.39;35.67;102752.25;5073787;28;49908;-77
2024/01/30 15:53:03;;;;;;;;;0.00;0.00;;;;;21.10;35.38;102740.28;5073917;28;45225;-77
2024/01/30 15:55:28;;;;;;;;;1.00;1.00;;;;;21.07;35.93;102743.22;5074135;28;45302;-77
2024/01/30 15:57:53;;;;;;;;;1.00;1.00;;;;;21.10;35.38;102762.09;5077100;28;45557;-76
2024/01/30 16:00:19;;;;;;;;;0.75;0.75;;;;;20.96;36.12;102749.28;5077089;28;45385;-77
2024/01/30 16:02:44;;;;;;;;;0.75;0.75;;;;;21.03;36.12;102757.97;5077307;28;45459;-76
2024/01/30 16:05:09;;;;;;;;;0.75;0.75;;;;;20.99;36.16;102764.59;5078982;27;52200;-77
2024/01/30 16:07:35;;;;;;;;;0.00;0.00;;;;;20.99;36.07;102770.94;5093043;27;45757;-75
2024/01/30 16:10:01;;;;;;;;;1.00;1.00;;;;;20.87;36.13;102759.81;5076849;28;46264;-77
2024/01/30 16:12:27;;;;;;;;;0.00;0.00;;;;;20.77;35.88;102754.91;5077066;28;45377;-77
2024/01/30 16:14:52;;;;;;;;;1.00;1.00;;;;;20.95;35.66;102787.53;5058795;28;45488;-77
2024/01/30 16:17:18;;;;;;;;;0.00;0.00;;;;;20.89;35.82;102786.03;5076245;28;45440;-78
2024/01/30 16:19:43;;;;;;;;;1.00;1.00;;;;;20.86;35.83;102777.16;5076138;28;45949;-77
2024/01/30 16:22:09;;;;;;;;;0.00;0.00;;;;;20.85;35.59;102787.16;5076617;28;45444;-75
2024/01/30 16:24:34;;;;;;;;;1.00;1.00;;;;;20.80;35.88;102785.69;5077092;28;45381;-76
2024/01/30 16:27:00;;;;;;;;;0.00;0.00;;;;;20.56;36.13;102796.13;5076675;28;45484;-75
2024/01/30 16:29:25;;;;;;;;;1.00;1.00;;;;;20.56;36.41;102787.94;5076512;28;46271;-76
2024/01/30 16:31:51;;;;;;;;;0.50;0.50;;;;;20.56;36.39;102797.00;5078108;27;45290;-79
2024/01/30 16:34:16;;;;;;;;;2.00;0.75;;;;;20.47;36.29;102794.78;5077740;28;45410;-77
2024/01/30 16:36:43;;;;;;;;;1.00;1.00;;;;;20.30;36.64;102786.59;5076524;28;45368;-79
2024/01/30 16:39:09;;;;;;;;;1.00;1.00;;;;;20.37;36.53;102798.97;5076415;28;45821;-79
2024/01/30 16:41:34;;;;;;;;;1.00;1.00;;;;;20.35;36.85;102806.34;5076391;28;45436;-76